Time;durP1;ratioP1;P1;durP2;ratioP2;P2;SDS_P1;SDS_P2;PMS_P1;PMS_P2;Temp;Humidity;BMP_temperature;BMP_pressure;BME280_temperature;BME280_humidity;BME280_pressure;Samples;Min_cycle;Max_cycle;Signal;HPM_P1;HPM_P2
2024/01/04 00:00:54;;;;;;;3.55;0.75;;;9.00;99.90;;;;;;2603340;46;20966;31
2024/01/04 00:03:36;;;;;;;3.85;1.05;;;8.90;99.90;;;;;;2584962;54;20969;31
2024/01/04 00:06:17;;;;;;;2.40;1.00;;;8.90;99.90;;;;;;2584643;54;20030;31
2024/01/04 00:08:51;;;;;;;5.17;0.80;;;8.90;99.90;;;;;;2584767;54;20944;31
2024/01/04 00:11:25;;;;;;;1.60;0.50;;;8.90;99.90;;;;;;2603394;46;20043;31
2024/01/04 00:14:05;;;;;;;2.03;0.95;;;8.90;99.90;;;;;;2584822;54;20073;31
2024/01/04 00:16:40;;;;;;;2.85;0.70;;;8.90;99.90;;;;;;2584732;54;20825;31
2024/01/04 00:19:17;;;;;;;1.83;0.52;;;8.90;99.90;;;;;;2584489;54;20036;31
2024/01/04 00:21:56;;;;;;;2.03;0.73;;;8.90;99.90;;;;;;2584884;54;20029;31
2024/01/04 00:24:34;;;;;;;2.10;0.70;;;8.80;99.90;;;;;;2603540;46;20951;31
2024/01/04 00:27:12;;;;;;;1.55;0.57;;;8.80;99.90;;;;;;2584857;54;20914;31
2024/01/04 00:29:47;;;;;;;1.03;0.37;;;8.80;99.90;;;;;;2584788;54;20913;31
2024/01/04 00:32:26;;;;;;;1.57;0.63;;;8.80;99.90;;;;;;2584621;54;20148;31
2024/01/04 00:34:59;;;;;;;1.35;0.60;;;8.80;99.90;;;;;;2584731;54;20108;31
2024/01/04 00:37:37;;;;;;;1.85;0.52;;;8.80;99.90;;;;;;2584715;54;20831;31
2024/01/04 00:40:14;;;;;;;1.65;0.40;;;8.80;99.90;;;;;;2584793;54;20065;31
2024/01/04 00:42:51;;;;;;;;;;;8.80;99.90;;;;;;2603064;46;20027;31
2024/01/04 00:45:24;;;;;;;2.37;0.50;;;8.80;99.90;;;;;;2584447;54;20829;31
2024/01/04 00:48:02;;;;;;;2.10;0.70;;;8.90;99.90;;;;;;2584568;54;20254;31
2024/01/04 00:50:37;;;;;;;2.33;1.17;;;8.90;99.90;;;;;;2584454;54;20848;31
2024/01/04 00:53:18;;;;;;;2.00;0.60;;;8.90;99.90;;;;;;2584502;54;20764;31
2024/01/04 00:55:56;;;;;;;2.30;0.80;;;8.80;99.90;;;;;;2584623;54;20966;31
2024/01/04 00:58:28;;;;;;;1.80;0.70;;;8.90;99.90;;;;;;2602823;47;20911;31
2024/01/04 01:01:07;;;;;;;1.75;0.50;;;8.90;99.90;;;;;;2584792;54;20797;31
2024/01/04 01:06:16;;;;;;;1.37;0.60;;;8.80;99.90;;;;;;2602952;47;20910;31
2024/01/04 01:08:54;;;;;;;2.83;0.70;;;8.90;99.90;;;;;;2584625;54;20030;31
2024/01/04 01:11:30;;;;;;;3.33;0.75;;;8.90;99.90;;;;;;2584467;54;20031;31
2024/01/04 01:14:07;;;;;;;1.70;0.60;;;8.80;99.90;;;;;;2584172;54;20979;31
2024/01/04 01:16:43;;;;;;;2.70;0.98;;;8.80;99.90;;;;;;2584742;54;20798;31
2024/01/04 01:19:17;;;;;;;3.07;0.60;;;8.80;99.90;;;;;;2585197;54;21159;31
2024/01/04 01:21:54;;;;;;;1.93;0.60;;;8.90;99.90;;;;;;2584698;54;20031;31
2024/01/04 01:24:31;;;;;;;;;;;8.90;99.90;;;;;;2584677;54;20044;31
2024/01/04 01:27:07;;;;;;;2.10;0.85;;;8.90;99.90;;;;;;2584411;54;20890;31
2024/01/04 01:29:42;;;;;;;4.90;0.60;;;8.90;99.90;;;;;;2602775;47;20052;31
2024/01/04 01:32:20;;;;;;;2.10;0.65;;;8.90;99.90;;;;;;2585241;54;20095;31
2024/01/04 01:34:57;;;;;;;3.10;0.70;;;8.90;99.90;;;;;;2604122;46;20925;31
2024/01/04 01:37:35;;;;;;;3.30;0.60;;;8.90;99.90;;;;;;2584954;54;20068;31
2024/01/04 01:40:14;;;;;;;2.90;0.65;;;8.90;99.90;;;;;;2585469;54;20057;31
2024/01/04 01:42:50;;;;;;;4.00;0.65;;;8.90;99.90;;;;;;2585388;54;20050;31
2024/01/04 01:45:25;;;;;;;;;;;8.90;99.90;;;;;;2585554;54;19939;31
2024/01/04 01:48:04;;;;;;;2.80;0.63;;;8.90;99.90;;;;;;2603972;46;19938;31
2024/01/04 01:50:40;;;;;;;2.40;0.50;;;8.90;99.90;;;;;;2585384;54;19935;31
2024/01/04 01:53:14;;;;;;;3.45;0.57;;;8.90;99.90;;;;;;2584316;54;20100;31
2024/01/04 01:55:52;;;;;;;2.60;0.40;;;8.90;99.90;;;;;;2585359;54;20022;31
2024/01/04 01:58:30;;;;;;;1.73;0.63;;;8.90;99.90;;;;;;2584920;54;20884;31
2024/01/04 02:01:07;;;;;;;1.40;0.50;;;8.90;99.90;;;;;;2585018;54;20031;31
2024/01/04 02:03:45;;;;;;;2.90;0.45;;;8.90;99.90;;;;;;2585297;54;20031;31
2024/01/04 02:06:19;;;;;;;2.70;0.60;;;8.90;99.90;;;;;;2603662;46;20945;31
2024/01/04 02:08:57;;;;;;;1.42;0.52;;;8.90;99.90;;;;;;2603491;46;20060;31
2024/01/04 02:11:31;;;;;;;1.40;0.50;;;8.90;99.90;;;;;;2584942;54;20973;31
2024/01/04 02:14:09;;;;;;;1.15;0.40;;;8.90;99.90;;;;;;2585025;54;20030;31
2024/01/04 02:16:45;;;;;;;1.70;0.53;;;8.90;99.90;;;;;;2585079;54;20037;31
2024/01/04 02:19:23;;;;;;;1.90;0.70;;;8.90;99.90;;;;;;2585290;54;21134;31
2024/01/04 02:22:02;;;;;;;1.40;0.43;;;8.90;99.90;;;;;;2585189;54;20969;31
2024/01/04 02:24:36;;;;;;;2.37;0.40;;;8.90;99.90;;;;;;2585166;54;20049;31
2024/01/04 02:27:13;;;;;;;0.80;0.40;;;8.90;99.90;;;;;;2584447;54;19930;31
2024/01/04 02:29:49;;;;;;;1.60;0.40;;;8.90;99.90;;;;;;2584342;54;20068;31
2024/01/04 02:32:28;;;;;;;1.85;0.40;;;8.90;99.90;;;;;;2585236;54;20945;31
2024/01/04 02:35:03;;;;;;;1.00;0.30;;;8.90;99.90;;;;;;2585362;54;20053;31
2024/01/04 02:37:41;;;;;;;;;;;8.90;99.90;;;;;;2603916;46;20927;31
2024/01/04 02:40:15;;;;;;;1.85;0.55;;;8.80;99.90;;;;;;2584989;54;19941;31
2024/01/04 02:42:53;;;;;;;1.10;0.40;;;8.90;99.90;;;;;;2585142;54;20023;31
2024/01/04 02:45:29;;;;;;;1.42;0.40;;;8.80;99.90;;;;;;2584956;54;21011;31
2024/01/04 02:48:02;;;;;;;1.45;0.45;;;8.80;99.90;;;;;;2603738;46;20031;31
2024/01/04 02:50:37;;;;;;;1.13;0.65;;;8.70;99.90;;;;;;2585115;54;20934;31
2024/01/04 02:53:12;;;;;;;0.63;0.30;;;8.70;99.90;;;;;;2585136;54;20119;31
2024/01/04 02:55:48;;;;;;;0.90;0.30;;;8.70;99.90;;;;;;2585308;54;21044;31
2024/01/04 02:58:27;;;;;;;1.15;0.30;;;8.60;99.90;;;;;;2585164;54;20386;31
2024/01/04 03:01:01;;;;;;;3.10;0.30;;;8.60;99.90;;;;;;2585219;54;20172;31
2024/01/04 03:03:37;;;;;;;1.10;0.37;;;8.60;99.90;;;;;;2585312;54;20785;31
2024/01/04 03:06:12;;;;;;;0.67;0.20;;;8.60;99.90;;;;;;2585151;54;20929;31
2024/01/04 03:08:50;;;;;;;3.05;0.40;;;8.60;99.90;;;;;;2603541;46;20026;31
2024/01/04 03:11:25;;;;;;;0.70;0.30;;;8.50;99.90;;;;;;2584977;54;20045;31
2024/01/04 03:14:05;;;;;;;1.00;0.30;;;8.50;99.90;;;;;;2585131;54;20920;31
2024/01/04 03:16:40;;;;;;;1.67;0.43;;;8.50;99.90;;;;;;2584982;54;20932;31
2024/01/04 03:19:17;;;;;;;0.82;0.35;;;8.40;99.90;;;;;;2603185;46;20042;31
2024/01/04 03:21:54;;;;;;;1.60;0.50;;;8.40;99.90;;;;;;2585098;54;20762;31
2024/01/04 03:24:31;;;;;;;1.95;0.60;;;8.40;99.90;;;;;;2585261;54;20746;31
2024/01/04 03:27:08;;;;;;;1.63;0.70;;;8.40;99.90;;;;;;2584611;54;20955;31
2024/01/04 03:29:49;;;;;;;1.63;0.90;;;8.30;99.90;;;;;;2585089;54;20888;31
2024/01/04 03:32:25;;;;;;;1.83;0.73;;;8.30;99.90;;;;;;2585076;54;20805;31
2024/01/04 03:35:00;;;;;;;2.35;0.73;;;8.30;99.90;;;;;;2603025;46;20965;31
2024/01/04 03:37:35;;;;;;;0.70;0.50;;;8.30;99.90;;;;;;2701524;39;21012;31
2024/01/04 03:40:13;;;;;;;0.77;0.20;;;8.30;99.90;;;;;;2603014;46;20026;31
2024/01/04 03:42:49;;;;;;;1.10;0.40;;;8.20;99.90;;;;;;2585146;54;20754;31
2024/01/04 03:45:28;;;;;;;2.25;0.30;;;8.20;99.90;;;;;;2584865;54;21000;31
2024/01/04 03:48:03;;;;;;;3.95;0.40;;;8.20;99.90;;;;;;2584921;54;20821;31
2024/01/04 03:50:39;;;;;;;;;;;8.20;99.90;;;;;;2585109;54;20034;31
2024/01/04 03:53:11;;;;;;;1.80;0.40;;;8.20;99.90;;;;;;2602841;46;19942;31
2024/01/04 03:55:46;;;;;;;1.77;0.53;;;8.20;99.90;;;;;;2603366;46;20027;31
2024/01/04 03:58:24;;;;;;;1.88;0.60;;;8.10;99.90;;;;;;2584771;54;21296;31
2024/01/04 04:00:59;;;;;;;0.60;0.20;;;8.10;99.90;;;;;;2585154;54;20891;31
2024/01/04 04:03:38;;;;;;;0.70;0.10;;;8.10;99.90;;;;;;2584838;54;20031;31
2024/01/04 04:06:14;;;;;;;1.25;0.20;;;8.10;99.90;;;;;;2584656;54;20026;31
2024/01/04 04:08:50;;;;;;;1.03;0.20;;;8.10;99.90;;;;;;2603426;46;20061;31
2024/01/04 04:11:25;;;;;;;0.30;0.20;;;8.00;99.90;;;;;;2584601;54;20038;31
2024/01/04 04:14:01;;;;;;;1.42;0.30;;;8.00;99.90;;;;;;2584956;54;20955;31
2024/01/04 04:16:36;;;;;;;1.00;0.40;;;8.00;99.90;;;;;;2585128;54;20034;31
2024/01/04 04:19:16;;;;;;;3.55;0.20;;;8.00;99.90;;;;;;2584896;54;20121;31
2024/01/04 04:21:52;;;;;;;0.45;0.40;;;8.00;99.90;;;;;;2584962;54;21042;31
2024/01/04 04:24:27;;;;;;;1.10;0.30;;;8.00;99.90;;;;;;2584763;54;20042;31
2024/01/04 04:27:03;;;;;;;2.17;0.20;;;8.00;99.90;;;;;;2584784;54;20948;31
2024/01/04 04:29:41;;;;;;;0.68;0.30;;;8.00;99.90;;;;;;2584761;54;20254;31
2024/01/04 04:32:17;;;;;;;1.92;0.30;;;8.00;99.90;;;;;;2603282;46;20108;31
2024/01/04 04:34:55;;;;;;;2.08;0.20;;;8.00;99.90;;;;;;2603192;46;20940;31
2024/01/04 04:37:30;;;;;;;2.60;0.30;;;8.00;99.90;;;;;;2584661;54;20937;31
2024/01/04 04:40:08;;;;;;;1.00;0.20;;;8.00;99.90;;;;;;2584986;54;20061;31
2024/01/04 04:42:48;;;;;;;1.42;0.20;;;8.00;99.90;;;;;;2603383;46;20030;31
2024/01/04 04:45:25;;;;;;;0.93;0.40;;;8.00;99.90;;;;;;2584673;54;21047;31
2024/01/04 04:48:03;;;;;;;0.50;0.20;;;8.00;99.90;;;;;;2584090;54;20076;31
2024/01/04 04:50:41;;;;;;;2.15;0.20;;;8.00;99.90;;;;;;2602899;47;21171;31
2024/01/04 04:53:19;;;;;;;1.58;0.20;;;8.00;99.90;;;;;;2585246;54;22482;31
2024/01/04 04:55:54;;;;;;;2.63;0.20;;;8.10;99.90;;;;;;2603122;47;20133;31
2024/01/04 04:58:31;;;;;;;2.22;0.38;;;8.00;99.90;;;;;;2584987;54;20030;31
2024/01/04 05:01:06;;;;;;;3.35;0.57;;;8.00;99.90;;;;;;2584869;54;20031;31
2024/01/04 05:03:42;;;;;;;2.45;0.40;;;8.00;99.90;;;;;;2584736;54;21067;31
2024/01/04 05:06:25;;;;;;;1.60;0.20;;;8.00;99.90;;;;;;2585390;54;20937;31
2024/01/04 05:09:03;;;;;;;0.93;0.30;;;8.10;99.90;;;;;;2585458;54;20879;31
2024/01/04 05:11:36;;;;;;;2.60;0.20;;;8.00;99.90;;;;;;2585648;54;21007;31
2024/01/04 05:14:13;;;;;;;1.35;0.20;;;8.00;99.90;;;;;;2702404;39;21062;31
2024/01/04 05:16:49;;;;;;;0.60;0.10;;;8.00;99.90;;;;;;2585627;54;20871;31
2024/01/04 05:19:25;;;;;;;;;;;8.00;99.90;;;;;;2604102;46;20773;31
2024/01/04 05:22:06;;;;;;;0.60;0.10;;;8.00;99.90;;;;;;2604032;46;20816;31
2024/01/04 05:24:41;;;;;;;1.30;0.23;;;8.00;99.90;;;;;;2585260;54;20027;31
2024/01/04 05:27:20;;;;;;;2.10;0.60;;;8.00;99.90;;;;;;2585418;54;21051;31
2024/01/04 05:29:54;;;;;;;1.40;0.50;;;8.00;99.90;;;;;;2585731;54;20947;31
2024/01/04 05:32:35;;;;;;;2.10;0.50;;;8.00;99.90;;;;;;2585450;54;20982;31
2024/01/04 05:35:14;;;;;;;1.33;0.28;;;8.00;99.90;;;;;;2587290;46;20770;31
2024/01/04 05:37:54;;;;;;;0.70;0.30;;;8.00;99.90;;;;;;2584537;54;20050;31
2024/01/04 05:40:29;;;;;;;1.20;0.30;;;8.00;99.90;;;;;;2584445;54;20019;31
2024/01/04 05:43:05;;;;;;;1.10;0.30;;;8.00;99.90;;;;;;2603636;46;20057;31
2024/01/04 05:45:48;;;;;;;2.15;0.60;;;8.00;99.90;;;;;;2585732;54;20960;31
2024/01/04 05:48:25;;;;;;;3.83;0.30;;;8.00;99.90;;;;;;2585500;54;20937;31
2024/01/04 05:51:05;;;;;;;1.25;0.13;;;8.00;99.90;;;;;;2585486;54;20119;31
2024/01/04 05:53:46;;;;;;;1.15;0.32;;;8.00;99.90;;;;;;2585259;54;20866;31
2024/01/04 05:56:20;;;;;;;3.30;0.70;;;8.10;99.90;;;;;;2585407;54;20030;31
2024/01/04 05:58:52;;;;;;;0.80;0.20;;;8.00;99.90;;;;;;2584948;54;20134;31
2024/01/04 06:01:30;;;;;;;1.77;0.68;;;8.10;99.90;;;;;;2604086;46;20038;31
2024/01/04 06:04:05;;;;;;;1.20;0.30;;;8.00;99.90;;;;;;2585492;54;20049;31
2024/01/04 06:06:40;;;;;;;3.05;0.50;;;8.10;99.90;;;;;;2603735;46;20081;31
2024/01/04 06:09:21;;;;;;;0.50;0.20;;;8.00;99.90;;;;;;2603682;46;20255;31
2024/01/04 06:12:00;;;;;;;1.85;0.40;;;8.00;99.90;;;;;;2585718;54;20246;31
2024/01/04 06:14:36;;;;;;;0.90;0.30;;;8.00;99.90;;;;;;2585251;54;20888;31
2024/01/04 06:17:16;;;;;;;1.40;0.20;;;8.10;99.90;;;;;;2603686;46;20083;31
2024/01/04 06:19:50;;;;;;;1.70;0.30;;;8.00;99.90;;;;;;2603745;46;20073;31
2024/01/04 06:22:26;;;;;;;1.73;0.40;;;8.00;99.90;;;;;;2585448;54;20057;31
2024/01/04 06:28:13;;;;;;;1.65;0.40;;;8.10;99.90;;;;;;2584464;54;20749;31
2024/01/04 06:30:46;;;;;;;1.95;0.50;;;8.10;99.90;;;;;;2585479;54;20034;31
2024/01/04 06:33:19;;;;;;;1.75;0.43;;;8.10;99.90;;;;;;2585367;54;20990;31
2024/01/04 06:35:52;;;;;;;2.72;0.85;;;8.10;99.90;;;;;;2585128;54;20035;31
2024/01/04 06:38:27;;;;;;;0.80;0.35;;;8.10;99.90;;;;;;2603598;46;20696;31
2024/01/04 06:41:00;;;;;;;4.15;0.50;;;8.10;99.90;;;;;;2603518;46;20029;31
2024/01/04 06:43:37;;;;;;;2.50;0.70;;;8.10;99.90;;;;;;2585232;54;21005;31
2024/01/04 06:46:12;;;;;;;2.80;0.60;;;8.10;99.90;;;;;;2585159;54;20918;31
2024/01/04 06:48:49;;;;;;;1.70;0.40;;;8.10;99.90;;;;;;2585192;54;20065;31
2024/01/04 06:51:22;;;;;;;1.65;0.50;;;8.10;99.90;;;;;;2603838;46;20868;31
2024/01/04 06:53:55;;;;;;;1.55;0.60;;;8.10;99.90;;;;;;2585059;54;20069;31
2024/01/04 06:56:32;;;;;;;0.63;0.30;;;8.10;99.90;;;;;;2585443;54;19935;31
2024/01/04 06:59:08;;;;;;;1.48;0.73;;;8.10;99.90;;;;;;2585093;54;20874;31
2024/01/04 07:01:43;;;;;;;1.20;0.40;;;8.10;99.90;;;;;;2585358;54;20046;31
2024/01/04 07:04:18;;;;;;;2.58;0.70;;;8.10;99.90;;;;;;2585366;54;20030;31
2024/01/04 07:06:53;;;;;;;3.13;0.80;;;8.10;99.90;;;;;;2585097;54;20862;31
2024/01/04 07:09:26;;;;;;;3.75;0.85;;;8.00;99.90;;;;;;2603452;46;20241;31
2024/01/04 07:11:59;;;;;;;3.47;0.67;;;8.00;99.90;;;;;;2585295;54;20979;31
2024/01/04 07:14:39;;;;;;;2.77;1.00;;;8.10;99.90;;;;;;2585303;54;20945;31
2024/01/04 07:17:12;;;;;;;1.90;0.80;;;8.10;99.90;;;;;;2603545;46;21970;31
2024/01/04 07:19:45;;;;;;;3.30;0.70;;;8.10;99.90;;;;;;2585249;54;20765;31
2024/01/04 07:22:23;;;;;;;2.40;0.80;;;8.00;99.90;;;;;;2584760;54;20789;31
2024/01/04 07:24:57;;;;;;;0.98;0.43;;;8.00;99.90;;;;;;2585308;54;20022;31
2024/01/04 07:27:35;;;;;;;1.80;0.50;;;8.10;99.90;;;;;;2603750;46;20764;31
2024/01/04 07:30:17;;;;;;;1.60;0.50;;;8.10;99.90;;;;;;2603736;47;20257;31
2024/01/04 07:32:56;;;;;;;2.50;0.55;;;8.10;99.90;;;;;;2585165;54;20963;31
2024/01/04 07:35:35;;;;;;;1.48;0.47;;;8.10;99.90;;;;;;2603561;46;21024;31
2024/01/04 07:38:12;;;;;;;2.15;0.40;;;8.10;99.90;;;;;;2585224;54;20032;31
2024/01/04 07:40:47;;;;;;;1.00;0.47;;;8.10;99.90;;;;;;2603209;46;20843;31
2024/01/04 07:43:22;;;;;;;2.70;0.80;;;8.10;99.90;;;;;;2603641;46;21151;31
2024/01/04 07:46:01;;;;;;;3.20;0.65;;;8.10;99.90;;;;;;2585205;54;20041;31
2024/01/04 07:48:38;;;;;;;1.90;0.70;;;8.00;99.90;;;;;;2584934;54;20967;31
2024/01/04 07:51:13;;;;;;;2.97;0.93;;;8.00;99.90;;;;;;2585232;54;21179;31
2024/01/04 07:53:48;;;;;;;3.88;0.90;;;8.00;99.90;;;;;;2584992;54;20034;31
2024/01/04 07:56:24;;;;;;;1.65;0.80;;;8.10;99.90;;;;;;2585189;54;20034;31
2024/01/04 07:58:58;;;;;;;5.55;1.77;;;8.10;99.90;;;;;;2584920;54;20059;31
2024/01/04 08:01:37;;;;;;;4.05;1.08;;;8.20;99.90;;;;;;2584956;54;20155;31
2024/01/04 08:04:12;;;;;;;4.65;0.80;;;8.10;99.90;;;;;;2603529;46;19961;31
2024/01/04 08:06:50;;;;;;;2.20;0.80;;;8.10;99.90;;;;;;2585077;54;20030;31
2024/01/04 08:09:23;;;;;;;0.85;0.40;;;8.10;99.90;;;;;;2596634;46;20870;31
2024/01/04 08:11:59;;;;;;;1.25;0.50;;;8.10;99.90;;;;;;2584859;54;21026;31
2024/01/04 08:14:35;;;;;;;0.90;0.20;;;8.10;99.90;;;;;;2584780;54;21008;31
2024/01/04 08:17:12;;;;;;;1.73;0.20;;;8.10;99.90;;;;;;2584981;54;20065;31
2024/01/04 08:19:46;;;;;;;0.40;0.20;;;8.10;99.90;;;;;;2583912;54;21169;31
2024/01/04 08:22:28;;;;;;;0.60;0.20;;;8.10;99.90;;;;;;2603520;46;20913;31
2024/01/04 08:25:04;;;;;;;0.70;0.30;;;8.20;99.90;;;;;;2584974;54;20061;31
2024/01/04 08:27:40;;;;;;;1.35;0.30;;;8.10;99.90;;;;;;2584907;54;20029;31
2024/01/04 08:30:18;;;;;;;1.00;0.20;;;8.10;99.90;;;;;;2603284;46;20967;31
2024/01/04 08:35:31;;;;;;;0.55;0.10;;;8.10;99.90;;;;;;2584988;54;20981;31
2024/01/04 08:38:08;;;;;;;0.88;0.30;;;8.10;99.90;;;;;;2603560;46;20936;31
2024/01/04 08:43:41;;;;;;;1.00;0.20;;;8.10;99.90;;;;;;2584088;54;20882;31
2024/01/04 08:46:20;;;;;;;7.50;0.40;;;8.10;99.90;;;;;;2583943;54;20027;31
2024/01/04 08:48:54;;;;;;;0.60;0.20;;;8.20;99.90;;;;;;2598434;46;21014;31
2024/01/04 08:51:35;;;;;;;2.35;0.10;;;8.30;99.90;;;;;;2584900;54;20894;31
2024/01/04 08:54:11;;;;;;;0.40;0.10;;;8.20;99.90;;;;;;2584869;54;20026;31
2024/01/04 08:56:47;;;;;;;0.63;0.20;;;8.20;99.90;;;;;;2584977;54;20073;31
2024/01/04 08:59:24;;;;;;;2.57;0.27;;;8.20;99.90;;;;;;2584641;54;20886;31
2024/01/04 09:02:00;;;;;;;1.30;0.30;;;8.20;99.90;;;;;;2603373;47;20127;31
2024/01/04 09:04:37;;;;;;;1.17;0.10;;;8.20;99.90;;;;;;2584821;54;20069;31
2024/01/04 09:07:16;;;;;;;0.40;0.17;;;8.20;99.90;;;;;;2584929;54;20026;31
2024/01/04 09:09:54;;;;;;;1.45;0.40;;;8.20;99.90;;;;;;2584776;54;20239;31
2024/01/04 09:12:35;;;;;;;3.10;0.60;;;8.20;99.90;;;;;;2585118;54;20943;31
2024/01/04 09:15:11;;;;;;;1.40;0.30;;;8.20;99.90;;;;;;2584763;54;20841;31
2024/01/04 09:17:46;;;;;;;1.10;0.20;;;8.20;99.90;;;;;;2584685;54;20938;31
2024/01/04 09:20:22;;;;;;;0.95;0.30;;;8.20;99.90;;;;;;2584585;54;20026;31
2024/01/04 09:23:01;;;;;;;1.55;0.95;;;8.20;99.90;;;;;;2603318;47;20760;31
2024/01/04 09:25:37;;;;;;;0.50;0.20;;;8.20;99.90;;;;;;2584877;54;20791;31
2024/01/04 09:28:13;;;;;;;2.70;0.20;;;8.20;99.90;;;;;;2584732;54;20935;31
2024/01/04 09:30:49;;;;;;;0.85;0.30;;;8.20;99.90;;;;;;2602843;47;20970;31
2024/01/04 09:33:25;;;;;;;0.90;0.30;;;8.20;99.90;;;;;;2602985;47;20973;31
2024/01/04 09:36:00;;;;;;;;;;;8.20;99.90;;;;;;2585027;54;20927;31
2024/01/04 09:38:38;;;;;;;2.20;0.57;;;8.20;99.90;;;;;;2584453;54;19981;31
2024/01/04 09:41:17;;;;;;;1.30;0.60;;;8.10;99.90;;;;;;2584826;54;22182;31
2024/01/04 09:43:55;;;;;;;1.50;0.50;;;8.10;99.90;;;;;;2584770;54;20034;31
2024/01/04 09:46:32;;;;;;;1.50;0.65;;;8.10;99.90;;;;;;2584864;54;20030;31
2024/01/04 09:49:08;;;;;;;1.17;0.40;;;8.10;99.90;;;;;;2603013;47;20051;31
2024/01/04 09:51:44;;;;;;;;;;;8.00;99.90;;;;;;2584904;54;20941;31
2024/01/04 09:54:22;;;;;;;1.77;0.35;;;8.00;99.90;;;;;;2585477;54;19940;31
2024/01/04 09:57:00;;;;;;;0.60;0.30;;;8.00;99.90;;;;;;2603898;46;21002;31
2024/01/04 09:59:36;;;;;;;0.55;0.20;;;8.00;99.90;;;;;;2585426;54;20050;31
2024/01/04 10:02:13;;;;;;;0.50;0.20;;;8.00;99.90;;;;;;2585414;54;20030;31
2024/01/04 10:04:48;;;;;;;0.75;0.32;;;8.00;99.90;;;;;;2585448;54;20877;31
2024/01/04 10:07:26;;;;;;;0.68;0.20;;;8.00;99.90;;;;;;2585534;54;20026;31
2024/01/04 10:10:11;;;;;;;1.85;0.20;;;8.00;99.90;;;;;;2585519;54;20022;31
2024/01/04 10:12:51;;;;;;;1.17;0.43;;;8.00;99.90;;;;;;2603684;46;19946;31
2024/01/04 10:15:31;;;;;;;0.85;0.30;;;8.00;99.90;;;;;;2584481;54;20093;31
2024/01/04 10:18:12;;;;;;;0.75;0.35;;;8.00;99.90;;;;;;2585553;54;20053;31
2024/01/04 10:20:52;;;;;;;0.50;0.23;;;8.10;99.90;;;;;;2585306;54;20027;31
2024/01/04 10:23:27;;;;;;;1.10;0.40;;;8.10;99.90;;;;;;2585555;54;20274;31
2024/01/04 10:26:18;;;;;;;2.10;0.40;;;8.10;99.90;;;;;;2603705;46;20956;31
2024/01/04 10:31:51;;;;;;;1.45;0.50;;;8.10;99.90;;;;;;2584326;54;20100;31
2024/01/04 10:34:30;;;;;;;4.30;1.10;;;8.20;99.90;;;;;;2603267;46;20987;31
2024/01/04 10:37:28;;;;;;;0.52;0.38;;;8.20;99.90;;;;;;2585315;54;20057;31
2024/01/04 10:46:10;;;;;;;1.55;0.75;;;8.40;99.90;;;;;;2585266;54;20948;31
2024/01/04 10:48:51;;;;;;;2.10;0.40;;;8.50;99.90;;;;;;2585292;54;20096;31
2024/01/04 10:51:36;;;;;;;3.40;0.82;;;8.50;99.90;;;;;;2585017;54;20056;31
2024/01/04 10:54:18;;;;;;;1.45;0.50;;;8.50;99.90;;;;;;2603762;46;20053;31
2024/01/04 10:57:04;;;;;;;1.83;0.60;;;8.60;99.90;;;;;;2585250;54;20881;31
2024/01/04 10:59:57;;;;;;;1.85;0.50;;;8.70;99.90;;;;;;2584565;54;20033;31
2024/01/04 11:02:43;;;;;;;0.90;0.30;;;8.80;99.90;;;;;;2585044;54;20069;31
2024/01/04 11:05:25;;;;;;;0.77;0.40;;;8.90;99.90;;;;;;2584699;54;20095;31
2024/01/04 11:08:04;;;;;;;1.30;0.65;;;8.90;99.90;;;;;;2585084;54;21272;31
2024/01/04 11:10:40;;;;;;;0.60;0.20;;;9.00;99.90;;;;;;2585111;54;20786;31
2024/01/04 11:16:20;;;;;;;0.80;0.30;;;8.90;99.90;;;;;;2584208;54;20949;31
2024/01/04 11:19:14;;;;;;;1.30;0.60;;;8.90;99.90;;;;;;2585082;54;20042;31
2024/01/04 11:24:45;;;;;;;1.38;0.47;;;8.80;99.90;;;;;;2585064;54;20038;31
2024/01/04 11:29:58;;;;;;;0.60;0.30;;;8.80;99.90;;;;;;2603535;46;20030;31
2024/01/04 11:32:46;;;;;;;1.90;0.60;;;8.80;99.90;;;;;;2603402;46;20816;31
2024/01/04 11:35:27;;;;;;;1.50;0.40;;;8.80;99.90;;;;;;2584944;54;20152;31
2024/01/04 11:38:08;;;;;;;1.85;0.50;;;8.80;99.90;;;;;;2603767;46;20053;31
2024/01/04 11:40:53;;;;;;;1.10;0.35;;;8.70;99.90;;;;;;2585119;54;20030;31
2024/01/04 11:43:38;;;;;;;1.70;0.32;;;8.70;99.90;;;;;;2585059;54;20988;31
2024/01/04 11:46:26;;;;;;;1.55;0.40;;;8.70;99.90;;;;;;2585307;54;20862;31
2024/01/04 11:49:11;;;;;;;3.05;0.50;;;8.80;99.90;;;;;;2584834;54;20026;31
2024/01/04 11:51:50;;;;;;;0.83;0.30;;;8.80;99.90;;;;;;2584835;54;20952;31
2024/01/04 11:54:31;;;;;;;3.10;0.40;;;8.80;99.90;;;;;;2603360;46;20033;31
2024/01/04 11:57:19;;;;;;;1.07;0.50;;;8.80;99.90;;;;;;2584875;54;20889;31
2024/01/04 11:59:56;;;;;;;1.60;0.20;;;8.80;99.90;;;;;;2585070;54;20982;31
2024/01/04 12:02:35;;;;;;;1.05;0.35;;;8.80;99.90;;;;;;2603408;46;20929;31
2024/01/04 12:05:27;;;;;;;0.93;0.40;;;8.80;99.90;;;;;;2584444;54;20897;31
2024/01/04 12:08:07;;;;;;;3.15;0.60;;;8.80;99.90;;;;;;2584805;54;20030;31
2024/01/04 12:10:54;;;;;;;1.45;0.30;;;8.90;99.90;;;;;;2603458;46;20860;31
2024/01/04 12:13:28;;;;;;;1.80;0.50;;;8.90;99.90;;;;;;2585096;54;20049;31
2024/01/04 12:16:05;;;;;;;0.53;0.20;;;8.90;99.90;;;;;;2602834;47;20917;31
2024/01/04 12:18:49;;;;;;;1.70;0.60;;;8.90;99.90;;;;;;2584709;54;20053;31
2024/01/04 12:21:41;;;;;;;2.20;0.80;;;8.90;99.90;;;;;;2603048;46;20926;31
2024/01/04 12:24:26;;;;;;;1.93;0.73;;;8.90;99.90;;;;;;2602894;46;20038;31
2024/01/04 12:27:00;;;;;;;2.03;0.73;;;8.90;99.90;;;;;;2584350;54;20246;31
2024/01/04 12:29:32;;;;;;;3.80;1.60;;;8.90;99.90;;;;;;2603226;46;20030;31
2024/01/04 12:32:07;;;;;;;2.03;1.00;;;8.90;99.90;;;;;;2584541;54;20061;31
2024/01/04 12:34:47;;;;;;;1.80;0.80;;;8.80;99.90;;;;;;2584653;54;20117;31
2024/01/04 12:37:34;;;;;;;1.27;0.40;;;8.80;99.90;;;;;;2584857;54;20076;31
2024/01/04 12:40:12;;;;;;;;;;;8.70;99.90;;;;;;2585163;54;20766;31
2024/01/04 12:42:45;;;;;;;1.50;0.30;;;8.50;99.90;;;;;;2603483;46;20021;31
2024/01/04 12:45:22;;;;;;;0.47;0.00;;;8.30;99.90;;;;;;2584945;54;20085;31
2024/01/04 12:48:03;;;;;;;0.30;0.10;;;8.10;99.90;;;;;;2602980;46;20946;31
2024/01/04 12:50:35;;;;;;;0.40;0.20;;;7.90;99.90;;;;;;2584841;54;20966;31
2024/01/04 12:53:12;;;;;;;0.45;0.10;;;7.70;99.90;;;;;;2584852;54;20182;31
2024/01/04 12:55:46;;;;;;;0.90;0.13;;;7.60;99.90;;;;;;2583341;54;20022;31
2024/01/04 12:58:21;;;;;;;1.40;0.20;;;7.50;99.90;;;;;;2600897;47;20051;31
2024/01/04 13:00:55;;;;;;;0.30;0.10;;;7.40;99.90;;;;;;2581141;54;20916;31
2024/01/04 13:03:35;;;;;;;0.13;0.10;;;7.20;99.90;;;;;;2580589;54;20092;31
2024/01/04 13:06:09;;;;;;;0.32;0.10;;;7.20;99.90;;;;;;2581980;54;20046;31
2024/01/04 13:08:47;;;;;;;0.95;0.00;;;7.10;99.90;;;;;;2580667;54;20172;31
2024/01/04 13:11:21;;;;;;;0.50;0.10;;;7.10;99.90;;;;;;2600550;47;20045;31
2024/01/04 13:14:08;;;;;;;1.33;0.30;;;7.10;99.90;;;;;;2581996;54;20765;31
2024/01/04 13:22:49;;;;;;;0.70;0.10;;;6.90;99.90;;;;;;2582716;54;20031;31
2024/01/04 13:25:26;;;;;;;0.50;0.20;;;6.90;99.90;;;;;;2581441;54;20069;31
2024/01/04 13:28:02;;;;;;;0.20;0.10;;;6.90;99.90;;;;;;2583606;54;20081;31
2024/01/04 13:46:23;;;;;;;0.55;0.20;;;6.70;99.90;;;;;;2584825;54;20250;31
2024/01/04 13:48:59;;;;;;;1.20;0.30;;;6.70;99.90;;;;;;2604081;46;20026;31
2024/01/04 13:51:36;;;;;;;0.50;0.10;;;6.70;99.90;;;;;;2683664;39;20970;31
2024/01/04 13:54:13;;;;;;;6.10;0.37;;;6.60;99.90;;;;;;2585617;54;20148;31
2024/01/04 13:56:50;;;;;;;;;;;6.60;99.90;;;;;;2585769;54;20206;31
2024/01/04 13:59:42;;;;;;;0.55;0.20;;;6.60;99.90;;;;;;2589992;46;20819;31
2024/01/04 14:02:21;;;;;;;0.70;0.30;;;6.50;99.90;;;;;;2585547;54;20026;31
2024/01/04 14:04:59;;;;;;;0.20;0.10;;;6.40;99.90;;;;;;2603845;46;20837;31
2024/01/04 14:07:35;;;;;;;1.17;0.10;;;6.40;99.90;;;;;;2585259;54;20927;31
2024/01/04 14:10:14;;;;;;;0.20;0.00;;;6.20;99.90;;;;;;2585367;54;20850;31
2024/01/04 14:12:51;;;;;;;0.65;0.20;;;6.20;99.90;;;;;;2583463;54;20983;31
2024/01/04 14:15:25;;;;;;;0.55;0.15;;;6.10;99.90;;;;;;2602491;46;20042;31
2024/01/04 14:18:01;;;;;;;0.95;0.20;;;6.10;99.90;;;;;;2583986;54;20819;31
2024/01/04 14:20:37;;;;;;;3.57;0.57;;;6.00;99.90;;;;;;2600950;46;20937;31
2024/01/04 14:23:17;;;;;;;;;;;6.00;99.90;;;;;;2585511;54;20022;31
2024/01/04 14:25:53;;;;;;;0.20;0.10;;;5.90;99.90;;;;;;2584929;54;19935;31
2024/01/04 14:28:32;;;;;;;0.73;0.30;;;5.90;99.90;;;;;;2584457;54;21134;31
2024/01/04 14:31:08;;;;;;;1.08;0.40;;;5.90;99.90;;;;;;2603253;46;20026;31
2024/01/04 14:33:49;;;;;;;1.30;0.50;;;5.90;99.90;;;;;;2585204;54;20111;31
2024/01/04 14:36:27;;;;;;;0.10;0.10;;;5.80;99.90;;;;;;2603444;46;21043;31
2024/01/04 14:39:03;;;;;;;0.40;0.10;;;5.80;99.90;;;;;;2585091;54;20072;31
2024/01/04 14:41:43;;;;;;;0.63;0.22;;;5.80;99.90;;;;;;2603875;46;20876;31
2024/01/04 14:44:20;;;;;;;0.87;0.30;;;5.70;99.90;;;;;;2585446;54;20079;31
2024/01/04 14:46:56;;;;;;;3.50;0.35;;;5.70;99.90;;;;;;2585364;54;20027;31
2024/01/04 14:49:37;;;;;;;0.80;0.30;;;5.70;99.90;;;;;;2701941;39;21086;31
2024/01/04 14:52:13;;;;;;;0.90;0.20;;;5.60;99.90;;;;;;2585307;54;21210;31
2024/01/04 14:54:51;;;;;;;0.73;0.20;;;5.60;99.90;;;;;;2585309;54;20929;31